createdAt,value
2022-10-13T00:00:49.219Z,1014.8
2022-10-13T00:01:57.414Z,1014.7
2022-10-13T00:03:06.582Z,1014.7
2022-10-13T00:04:15.757Z,1014.8
2022-10-13T00:05:24.931Z,1014.8
2022-10-13T00:06:34.112Z,1014.8
2022-10-13T00:07:43.299Z,1014.8
2022-10-13T00:08:52.453Z,1014.7
2022-10-13T00:10:01.621Z,1014.7
2022-10-13T00:11:10.804Z,1014.7
2022-10-13T00:12:19.970Z,1014.7
2022-10-13T00:13:29.145Z,1014.7
2022-10-13T00:14:38.324Z,1014.8
2022-10-13T00:15:47.483Z,1014.7
2022-10-13T00:16:55.679Z,1014.7
2022-10-13T00:18:04.840Z,1014.7
2022-10-13T00:19:14.026Z,1014.7
2022-10-13T00:20:23.190Z,1014.7
2022-10-13T00:21:32.360Z,1014.7
2022-10-13T00:22:41.532Z,1014.6
2022-10-13T00:23:50.704Z,1014.6
2022-10-13T00:24:59.892Z,1014.6
2022-10-13T00:26:09.052Z,1014.6
2022-10-13T00:27:18.225Z,1014.6
2022-10-13T00:28:27.398Z,1014.6
2022-10-13T00:29:36.561Z,1014.6
2022-10-13T00:30:45.736Z,1014.6
2022-10-13T00:31:53.926Z,1014.5
2022-10-13T00:33:03.101Z,1014.6
2022-10-13T00:34:12.277Z,1014.5
2022-10-13T00:35:21.455Z,1014.5
2022-10-13T00:36:30.608Z,1014.5
2022-10-13T00:37:39.834Z,1014.6
2022-10-13T00:38:48.972Z,1014.5
2022-10-13T00:39:58.145Z,1014.5
2022-10-13T00:41:07.308Z,1014.5
2022-10-13T00:42:16.480Z,1014.5
2022-10-13T00:43:25.653Z,1014.4
2022-10-13T00:45:43.041Z,1014.5
2022-10-13T00:48:00.378Z,1014.5
2022-10-13T00:49:08.588Z,1014.5
2022-10-13T00:50:16.791Z,1014.5
2022-10-13T00:51:25.956Z,1014.5
2022-10-13T00:52:35.127Z,1014.5
2022-10-13T00:53:44.301Z,1014.5
2022-10-13T00:54:53.474Z,1014.5
2022-10-13T00:56:02.640Z,1014.5
2022-10-13T00:57:11.820Z,1014.6
2022-10-13T00:58:20.987Z,1014.5
2022-10-13T00:59:30.174Z,1014.5
2022-10-13T01:01:48.535Z,1014.5
2022-10-13T01:02:57.683Z,1014.5
2022-10-13T01:04:06.850Z,1014.5
2022-10-13T01:05:15.074Z,1014.6
2022-10-13T01:06:24.216Z,1014.5
2022-10-13T01:07:33.388Z,1014.5
2022-10-13T01:08:42.556Z,1014.5
2022-10-13T01:09:51.728Z,1014.4
2022-10-13T01:11:00.914Z,1014.4
2022-10-13T01:12:10.065Z,1014.3
2022-10-13T01:13:19.254Z,1014.4
2022-10-13T01:14:28.421Z,1014.3
2022-10-13T01:15:37.591Z,1014.3
2022-10-13T01:16:46.760Z,1014.3
2022-10-13T01:17:55.941Z,1014.3
2022-10-13T01:19:05.116Z,1014.2
2022-10-13T01:20:13.295Z,1014.3
2022-10-13T01:21:22.497Z,1014.2
2022-10-13T01:22:31.644Z,1014.2
2022-10-13T01:23:40.818Z,1014.2
2022-10-13T01:24:49.989Z,1014.1
2022-10-13T01:25:59.167Z,1014.1
2022-10-13T01:27:08.333Z,1014.1
2022-10-13T01:28:17.514Z,1014.1
2022-10-13T01:29:26.703Z,1014.1
2022-10-13T01:30:35.860Z,1014.1
2022-10-13T01:31:45.027Z,1014.1
2022-10-13T01:32:54.200Z,1014
2022-10-13T01:34:03.367Z,1014.1
2022-10-13T01:35:11.549Z,1014
2022-10-13T01:36:20.732Z,1014
2022-10-13T01:37:29.912Z,1014.1
2022-10-13T01:38:39.071Z,1014
2022-10-13T01:39:48.250Z,1014
2022-10-13T01:40:57.418Z,1014
2022-10-13T01:42:06.600Z,1014
2022-10-13T01:43:15.770Z,1014
2022-10-13T01:44:24.954Z,1013.9
2022-10-13T01:45:34.138Z,1014
2022-10-13T01:46:43.322Z,1014
2022-10-13T01:47:52.472Z,1014
2022-10-13T01:49:01.642Z,1013.9
2022-10-13T01:51:18.989Z,1013.9
2022-10-13T01:52:28.165Z,1013.9
2022-10-13T01:53:37.336Z,1013.9
2022-10-13T01:54:46.520Z,1013.9
2022-10-13T01:55:55.677Z,1013.9
2022-10-13T01:57:04.868Z,1013.9
2022-10-13T01:58:14.024Z,1013.9
2022-10-13T01:59:23.204Z,1013.8
2022-10-13T02:00:32.376Z,1013.8
2022-10-13T02:01:41.557Z,1013.8
2022-10-13T02:02:50.718Z,1013.9
2022-10-13T02:03:59.886Z,1013.9
2022-10-13T02:05:08.105Z,1013.9
2022-10-13T02:06:17.258Z,1013.8
2022-10-13T02:07:26.451Z,1013.8
2022-10-13T02:08:35.598Z,1013.8
2022-10-13T02:09:44.766Z,1013.8
2022-10-13T02:10:53.939Z,1013.9
2022-10-13T02:12:03.118Z,1013.8
2022-10-13T02:13:12.300Z,1013.8
2022-10-13T02:14:21.464Z,1013.8
2022-10-13T02:15:30.623Z,1013.7
2022-10-13T02:16:39.807Z,1013.8
2022-10-13T02:17:48.974Z,1013.7
2022-10-13T02:18:58.148Z,1013.7
2022-10-13T02:21:15.511Z,1013.8
2022-10-13T02:22:24.682Z,1013.8
2022-10-13T02:23:33.859Z,1013.7
2022-10-13T02:24:43.019Z,1013.7
2022-10-13T02:25:52.197Z,1013.7
2022-10-13T02:27:01.378Z,1013.7
2022-10-13T02:28:10.550Z,1013.7
2022-10-13T02:29:19.711Z,1013.7
2022-10-13T02:30:28.901Z,1013.7
2022-10-13T02:31:38.058Z,1013.8
2022-10-13T02:32:47.240Z,1013.8
2022-10-13T02:35:05.580Z,1013.7
2022-10-13T02:36:13.764Z,1013.7
2022-10-13T02:37:22.931Z,1013.7
2022-10-13T02:38:32.154Z,1013.6
2022-10-13T02:39:41.288Z,1013.7
2022-10-13T02:40:50.457Z,1013.8
2022-10-13T02:41:59.630Z,1013.7
2022-10-13T02:43:08.813Z,1013.7
2022-10-13T02:44:17.982Z,1013.7
2022-10-13T02:45:27.183Z,1013.7
2022-10-13T02:46:36.319Z,1013.7
2022-10-13T02:47:45.554Z,1013.7
2022-10-13T02:50:03.878Z,1013.7
2022-10-13T02:51:12.036Z,1013.7
2022-10-13T02:52:21.199Z,1013.7
2022-10-13T02:53:30.373Z,1013.7
2022-10-13T02:54:39.547Z,1013.7
2022-10-13T02:55:48.730Z,1013.6
2022-10-13T02:56:57.887Z,1013.6
2022-10-13T02:58:07.059Z,1013.7
2022-10-13T02:59:16.228Z,1013.7
2022-10-13T03:00:25.405Z,1013.7
2022-10-13T03:01:34.576Z,1013.8
2022-10-13T03:02:43.758Z,1013.7
2022-10-13T03:03:52.970Z,1013.7
2022-10-13T03:05:02.097Z,1013.7
2022-10-13T03:06:10.281Z,1013.8
2022-10-13T03:07:19.485Z,1013.8
2022-10-13T03:08:28.636Z,1013.8
2022-10-13T03:09:37.798Z,1013.8
2022-10-13T03:10:46.976Z,1013.8
2022-10-13T03:11:56.148Z,1013.8
2022-10-13T03:13:05.332Z,1013.7
2022-10-13T03:14:14.500Z,1013.7
2022-10-13T03:15:23.665Z,1013.7
2022-10-13T03:16:32.862Z,1013.7
2022-10-13T03:17:42.011Z,1013.7
2022-10-13T03:18:51.183Z,1013.6
2022-10-13T03:20:00.355Z,1013.6
2022-10-13T03:21:08.539Z,1013.7
2022-10-13T03:22:17.721Z,1013.6
2022-10-13T03:23:26.887Z,1013.6
2022-10-13T03:24:36.059Z,1013.6
2022-10-13T03:25:45.234Z,1013.7
2022-10-13T03:26:54.398Z,1013.6
2022-10-13T03:28:03.575Z,1013.6
2022-10-13T03:29:12.746Z,1013.6
2022-10-13T03:31:31.102Z,1013.5
2022-10-13T03:32:40.276Z,1013.5
2022-10-13T03:33:49.436Z,1013.5
2022-10-13T03:34:58.608Z,1013.5
2022-10-13T03:36:06.795Z,1013.5
2022-10-13T03:37:15.988Z,1013.5
2022-10-13T03:38:25.137Z,1013.5
2022-10-13T03:39:34.315Z,1013.5
2022-10-13T03:40:43.491Z,1013.4
2022-10-13T03:41:52.657Z,1013.4
2022-10-13T03:43:01.863Z,1013.3
2022-10-13T03:44:11.006Z,1013.4
2022-10-13T03:45:20.177Z,1013.4
2022-10-13T03:46:29.350Z,1013.3
2022-10-13T03:47:38.516Z,1013.4
2022-10-13T03:48:47.705Z,1013.3
2022-10-13T03:49:56.862Z,1013.4
2022-10-13T03:51:05.059Z,1013.3
2022-10-13T03:52:14.283Z,1013.3
2022-10-13T03:53:23.408Z,1013.3
2022-10-13T03:54:32.572Z,1013.3
2022-10-13T03:55:41.740Z,1013.4
2022-10-13T03:56:50.914Z,1013.3
2022-10-13T03:58:00.096Z,1013.3
2022-10-13T03:59:09.260Z,1013.3
2022-10-13T04:00:18.427Z,1013.4
2022-10-13T04:01:27.598Z,1013.4
2022-10-13T04:02:36.777Z,1013.4
2022-10-13T04:03:45.942Z,1013.4
2022-10-13T04:04:55.130Z,1013.4
2022-10-13T04:06:03.324Z,1013.3
2022-10-13T04:07:12.482Z,1013.3
2022-10-13T04:08:21.657Z,1013.3
2022-10-13T04:09:30.827Z,1013.3
2022-10-13T04:10:40.027Z,1013.3
2022-10-13T04:11:49.180Z,1013.2
2022-10-13T04:12:58.348Z,1013.2
2022-10-13T04:14:07.527Z,1013.2
2022-10-13T04:15:16.726Z,1013.2
2022-10-13T04:16:25.898Z,1013.1
2022-10-13T04:17:35.050Z,1013.1
2022-10-13T04:18:44.201Z,1013.2
2022-10-13T04:19:53.375Z,1013.2
2022-10-13T04:21:01.564Z,1013.2
2022-10-13T04:22:10.761Z,1013.2
2022-10-13T04:23:19.908Z,1013.2
2022-10-13T04:24:29.090Z,1013.1
2022-10-13T04:25:38.252Z,1013.1
2022-10-13T04:26:47.425Z,1013.1
2022-10-13T04:27:56.605Z,1013.1
2022-10-13T04:29:05.766Z,1013.1
2022-10-13T04:30:14.948Z,1013.1
2022-10-13T04:31:24.121Z,1013
2022-10-13T04:32:33.286Z,1013
2022-10-13T04:33:42.454Z,1013
2022-10-13T04:34:51.643Z,1013
2022-10-13T04:35:59.824Z,1013
2022-10-13T04:37:09.002Z,1013
2022-10-13T04:39:27.335Z,1013
2022-10-13T04:40:35.535Z,1013
2022-10-13T04:41:44.707Z,1013
2022-10-13T04:42:53.881Z,1013
2022-10-13T04:44:03.050Z,1013
2022-10-13T04:45:12.224Z,1013
2022-10-13T04:46:21.389Z,1013
2022-10-13T04:47:30.567Z,1013
2022-10-13T04:48:39.741Z,1013
2022-10-13T04:49:48.908Z,1012.9
2022-10-13T04:50:58.087Z,1012.9
2022-10-13T04:52:07.258Z,1012.9
2022-10-13T04:53:16.422Z,1012.9
2022-10-13T04:54:25.609Z,1012.9
2022-10-13T04:55:33.788Z,1012.9
2022-10-13T04:56:42.975Z,1012.9
2022-10-13T04:57:52.181Z,1012.9
2022-10-13T04:59:01.334Z,1012.9
2022-10-13T05:00:10.474Z,1012.9
2022-10-13T05:01:19.647Z,1012.9
2022-10-13T05:02:28.846Z,1012.9
2022-10-13T05:03:37.987Z,1012.9
2022-10-13T05:04:47.170Z,1012.9
2022-10-13T05:05:56.363Z,1012.9
2022-10-13T05:07:05.509Z,1012.8
2022-10-13T05:08:14.685Z,1012.9
2022-10-13T05:09:23.894Z,1012.8
2022-10-13T05:10:32.047Z,1012.8
2022-10-13T05:11:41.225Z,1012.8
2022-10-13T05:12:50.398Z,1012.8
2022-10-13T05:13:59.559Z,1012.9
2022-10-13T05:15:08.733Z,1012.7
2022-10-13T05:16:17.903Z,1012.8
2022-10-13T05:17:27.086Z,1012.8
2022-10-13T05:18:36.263Z,1012.7
2022-10-13T05:19:45.429Z,1012.7
2022-10-13T05:20:54.600Z,1012.8
2022-10-13T05:22:03.768Z,1012.7
2022-10-13T05:24:22.112Z,1012.7
2022-10-13T05:25:31.296Z,1012.7
2022-10-13T05:26:39.484Z,1012.8
2022-10-13T05:27:48.647Z,1012.8
2022-10-13T05:28:57.817Z,1012.8
2022-10-13T05:30:07.006Z,1012.7
2022-10-13T05:31:16.166Z,1012.8
2022-10-13T05:32:25.337Z,1012.8
2022-10-13T05:33:34.510Z,1012.7
2022-10-13T05:34:43.683Z,1012.7
2022-10-13T05:35:52.937Z,1012.7
2022-10-13T05:37:02.022Z,1012.7
2022-10-13T05:38:11.199Z,1012.7
2022-10-13T05:39:20.373Z,1012.7
2022-10-13T05:40:28.571Z,1012.7
2022-10-13T05:41:36.754Z,1012.7
2022-10-13T05:42:45.952Z,1012.7
2022-10-13T05:43:55.150Z,1012.7
2022-10-13T05:45:04.274Z,1012.7
2022-10-13T05:46:13.448Z,1012.6
2022-10-13T05:47:22.621Z,1012.6
2022-10-13T05:48:31.784Z,1012.7
2022-10-13T05:49:40.957Z,1012.7
2022-10-13T05:50:50.140Z,1012.7
2022-10-13T05:51:59.299Z,1012.7
2022-10-13T05:53:08.483Z,1012.7
2022-10-13T05:54:17.653Z,1012.7
2022-10-13T05:55:26.820Z,1012.8
2022-10-13T05:56:35.013Z,1012.7
2022-10-13T05:57:44.194Z,1012.7
2022-10-13T05:58:53.388Z,1012.7
2022-10-13T06:00:02.636Z,1012.7
2022-10-13T06:01:11.738Z,1012.6
2022-10-13T06:02:20.878Z,1012.6
2022-10-13T06:03:30.089Z,1012.6
2022-10-13T06:04:39.224Z,1012.7
2022-10-13T06:05:48.398Z,1012.6
2022-10-13T06:06:57.567Z,1012.6
2022-10-13T06:08:06.796Z,1012.6
2022-10-13T06:10:25.076Z,1012.6
2022-10-13T06:11:33.275Z,1012.6
2022-10-13T06:12:42.448Z,1012.6
2022-10-13T06:13:51.614Z,1012.5
2022-10-13T06:15:00.787Z,1012.6
2022-10-13T06:16:09.964Z,1012.5
2022-10-13T06:17:18.156Z,1012.5
2022-10-13T06:18:26.353Z,1012.5
2022-10-13T06:19:35.509Z,1012.5
2022-10-13T06:20:44.682Z,1012.5
2022-10-13T06:21:53.875Z,1012.4
2022-10-13T06:23:03.039Z,1012.2
2022-10-13T06:24:12.206Z,1012.3
2022-10-13T06:25:21.366Z,1012.3
2022-10-13T06:26:30.550Z,1012.5
2022-10-13T06:27:39.719Z,1012.5
2022-10-13T06:28:48.901Z,1012.5
2022-10-13T06:29:58.060Z,1012.5
2022-10-13T06:31:07.260Z,1012.5
2022-10-13T06:32:16.548Z,1012.6
2022-10-13T06:33:24.603Z,1012.5
2022-10-13T06:34:33.765Z,1012.5
2022-10-13T06:35:42.952Z,1012.5
2022-10-13T06:38:01.321Z,1012.5
2022-10-13T06:39:10.454Z,1012.5
2022-10-13T06:40:19.637Z,1012.5
2022-10-13T06:41:28.802Z,1012.5
2022-10-13T06:42:38.003Z,1012.5
2022-10-13T06:43:47.213Z,1012.5
2022-10-13T06:44:56.316Z,1012.5
2022-10-13T06:46:05.503Z,1012.4
2022-10-13T06:47:14.672Z,1012.5
2022-10-13T06:48:22.852Z,1012.5
2022-10-13T06:49:32.032Z,1012.5
2022-10-13T06:50:41.197Z,1012.5
2022-10-13T06:51:50.381Z,1012.5
2022-10-13T06:52:59.547Z,1012.5
2022-10-13T06:54:08.723Z,1012.4
2022-10-13T06:55:17.926Z,1012.5
2022-10-13T06:56:27.081Z,1012.5
2022-10-13T06:57:36.258Z,1012.5
2022-10-13T06:58:45.411Z,1012.4
2022-10-13T06:59:54.614Z,1012.5
2022-10-13T07:01:03.771Z,1012.5
2022-10-13T07:02:12.954Z,1012.5
2022-10-13T07:03:21.119Z,1012.5
2022-10-13T07:04:30.293Z,1012.5
2022-10-13T07:05:39.456Z,1012.6
2022-10-13T07:06:48.662Z,1012.5
2022-10-13T07:07:57.808Z,1012.5
2022-10-13T07:09:06.982Z,1012.5
2022-10-13T07:10:16.149Z,1012.5
2022-10-13T07:11:25.342Z,1012.6
2022-10-13T07:12:34.507Z,1012.5
2022-10-13T07:13:43.782Z,1012.6
2022-10-13T07:14:52.958Z,1012.5
2022-10-13T07:16:02.093Z,1012.6
2022-10-13T07:17:11.270Z,1012.6
2022-10-13T07:18:19.429Z,1012.5
2022-10-13T07:19:28.639Z,1012.6
2022-10-13T07:20:37.717Z,1012.6
2022-10-13T07:21:46.903Z,1012.6
2022-10-13T07:22:56.077Z,1012.6
2022-10-13T07:24:05.277Z,1012.6
2022-10-13T07:25:14.416Z,1012.6
2022-10-13T07:26:23.618Z,1012.5
2022-10-13T07:27:32.862Z,1012.6
2022-10-13T07:28:41.951Z,1012.6
2022-10-13T07:29:51.165Z,1012.6
2022-10-13T07:31:00.368Z,1012.5
2022-10-13T07:32:09.553Z,1012.5
2022-10-13T07:33:18.612Z,1012.5
2022-10-13T07:34:26.817Z,1012.6
2022-10-13T07:35:36.009Z,1012.6
2022-10-13T07:36:45.177Z,1012.5
2022-10-13T07:37:54.336Z,1012.5
2022-10-13T07:39:03.514Z,1012.5
2022-10-13T07:40:12.712Z,1012.5
2022-10-13T07:42:31.012Z,1012.5
2022-10-13T07:43:40.182Z,1012.5
2022-10-13T07:44:49.360Z,1012.5
2022-10-13T07:45:58.526Z,1012.5
2022-10-13T07:47:07.813Z,1012.5
2022-10-13T07:48:16.904Z,1012.6
2022-10-13T07:49:25.163Z,1012.6
2022-10-13T07:50:34.310Z,1012.5
2022-10-13T07:51:43.423Z,1012.6
2022-10-13T07:52:52.666Z,1012.6
2022-10-13T07:54:01.798Z,1012.5
2022-10-13T07:55:10.913Z,1012.5
2022-10-13T07:56:20.109Z,1012.6
2022-10-13T07:57:29.290Z,1012.6
2022-10-13T07:58:38.441Z,1012.6
2022-10-13T07:59:47.683Z,1012.7
2022-10-13T08:00:56.782Z,1012.7
2022-10-13T08:02:06.000Z,1012.7
2022-10-13T08:03:15.128Z,1012.6
2022-10-13T08:04:23.329Z,1012.6
2022-10-13T08:05:32.496Z,1012.6
2022-10-13T08:06:41.670Z,1012.7
2022-10-13T08:07:50.856Z,1012.7
2022-10-13T08:09:00.006Z,1012.6
2022-10-13T08:10:09.183Z,1012.6
2022-10-13T08:11:18.371Z,1012.6
2022-10-13T08:12:27.530Z,1012.5
2022-10-13T08:13:36.700Z,1012.6
2022-10-13T08:14:45.866Z,1012.6
2022-10-13T08:15:55.053Z,1012.6
2022-10-13T08:17:04.222Z,1012.6
2022-10-13T08:18:13.414Z,1012.6
2022-10-13T08:19:21.582Z,1012.5
2022-10-13T08:20:29.774Z,1012.5
2022-10-13T08:21:38.933Z,1012.5
2022-10-13T08:22:48.115Z,1012.5
2022-10-13T08:23:57.272Z,1012.5
2022-10-13T08:25:06.449Z,1012.5
2022-10-13T08:26:14.651Z,1012.5
2022-10-13T08:27:22.831Z,1012.5
2022-10-13T08:28:32.011Z,1012.5
2022-10-13T08:29:41.178Z,1012.5
2022-10-13T08:30:50.358Z,1012.5
2022-10-13T08:31:58.586Z,1012.5
2022-10-13T08:33:07.861Z,1012.5
2022-10-13T08:34:16.894Z,1012.5
2022-10-13T08:35:25.080Z,1012.4
2022-10-13T08:36:33.278Z,1012.4
2022-10-13T08:37:42.441Z,1012.4
2022-10-13T08:38:51.631Z,1012.4
2022-10-13T08:40:00.857Z,1012.3
2022-10-13T08:41:09.968Z,1012.4
2022-10-13T08:42:19.203Z,1012.5
2022-10-13T08:43:28.310Z,1012.5
2022-10-13T08:44:37.479Z,1012.5
2022-10-13T08:45:46.654Z,1012.5
2022-10-13T08:46:55.823Z,1012.5
2022-10-13T08:48:04.993Z,1012.5
2022-10-13T08:49:14.171Z,1012.4
2022-10-13T08:50:23.352Z,1012.4
2022-10-13T08:51:31.527Z,1012.4
2022-10-13T08:52:40.731Z,1012.3
2022-10-13T08:53:49.877Z,1012.3
2022-10-13T08:54:59.048Z,1012.3
2022-10-13T08:56:08.219Z,1012.4
2022-10-13T08:58:26.569Z,1012.4
2022-10-13T08:59:35.734Z,1012.4
2022-10-13T09:00:44.915Z,1012.4
2022-10-13T09:01:54.073Z,1012.4
2022-10-13T09:03:03.269Z,1012.4
2022-10-13T09:04:12.447Z,1012.4
2022-10-13T09:05:21.599Z,1012.5
2022-10-13T09:06:29.842Z,1012.5
2022-10-13T09:07:38.953Z,1012.5
2022-10-13T09:08:48.136Z,1012.4
2022-10-13T09:09:57.305Z,1012.4
2022-10-13T09:11:06.470Z,1012.4
2022-10-13T09:12:15.656Z,1012.3
2022-10-13T09:13:24.823Z,1012.3
2022-10-13T09:14:33.993Z,1012.3
2022-10-13T09:15:43.154Z,1012.3
2022-10-13T09:16:52.338Z,1012.3
2022-10-13T09:18:01.508Z,1012.3
2022-10-13T09:19:10.673Z,1012.3
2022-10-13T09:20:19.855Z,1012.3
2022-10-13T09:21:28.028Z,1012.2
2022-10-13T09:22:37.235Z,1012.2
2022-10-13T09:23:46.444Z,1012.3
2022-10-13T09:24:55.633Z,1012.2
2022-10-13T09:26:04.729Z,1012.3
2022-10-13T09:27:13.909Z,1012.2
2022-10-13T09:28:23.077Z,1012.2
2022-10-13T09:29:32.237Z,1012.2
2022-10-13T09:30:41.416Z,1012.2
2022-10-13T09:31:50.590Z,1012.2
2022-10-13T09:32:59.762Z,1012.1
2022-10-13T09:34:08.936Z,1012.2
2022-10-13T09:35:18.093Z,1012.2
2022-10-13T09:36:26.290Z,1012.2
2022-10-13T09:37:35.464Z,1012.2
2022-10-13T09:38:44.644Z,1012.3
2022-10-13T09:39:53.816Z,1012.3
2022-10-13T09:41:02.984Z,1012.3
2022-10-13T09:42:12.238Z,1012.3
2022-10-13T09:44:30.561Z,1012.3
2022-10-13T09:45:39.677Z,1012.2
2022-10-13T09:47:58.048Z,1012.2
2022-10-13T09:49:07.189Z,1012.2
2022-10-13T09:50:16.358Z,1012.2
2022-10-13T09:51:24.576Z,1012.2
2022-10-13T09:52:33.722Z,1012.2
2022-10-13T09:53:42.910Z,1012.1
2022-10-13T09:54:52.064Z,1012.1
2022-10-13T09:56:01.284Z,1012.1
2022-10-13T09:58:19.652Z,1012.2
2022-10-13T09:59:27.782Z,1012.1
2022-10-13T10:00:35.974Z,1012.2
2022-10-13T10:01:45.165Z,1012.2
2022-10-13T10:02:54.312Z,1012.2
2022-10-13T10:04:03.526Z,1012.2
2022-10-13T10:05:12.650Z,1012.2
2022-10-13T10:06:21.823Z,1012.1
2022-10-13T10:07:31.067Z,1012.1
2022-10-13T10:08:40.172Z,1012.1
2022-10-13T10:09:49.375Z,1012.1
2022-10-13T10:10:58.505Z,1012
2022-10-13T10:12:06.707Z,1012.1
2022-10-13T10:14:24.066Z,1012
2022-10-13T10:15:33.249Z,1012.1
2022-10-13T10:16:42.415Z,1012
2022-10-13T10:17:51.592Z,1012
2022-10-13T10:19:00.780Z,1012
2022-10-13T10:20:09.923Z,1012.1
2022-10-13T10:21:19.101Z,1012
2022-10-13T10:22:28.265Z,1012
2022-10-13T10:23:37.448Z,1012
2022-10-13T10:24:46.625Z,1012
2022-10-13T10:25:55.794Z,1012
2022-10-13T10:27:04.985Z,1012
2022-10-13T10:28:13.148Z,1011.9
2022-10-13T10:29:22.338Z,1011.9
2022-10-13T10:30:31.493Z,1011.9
2022-10-13T10:31:40.707Z,1011.9
2022-10-13T10:32:49.848Z,1011.9
2022-10-13T10:35:08.184Z,1011.8
2022-10-13T10:36:17.355Z,1011.8
